createdAt,value
2023-08-26T00:05:08.039Z,15.03
2023-08-26T00:10:21.278Z,14.25
2023-08-26T00:15:31.811Z,19.87
2023-08-26T00:20:46.709Z,18.35
2023-08-26T00:25:54.427Z,21.45
2023-08-26T00:31:03.702Z,17.55
2023-08-26T00:36:09.473Z,20.20
2023-08-26T00:41:16.425Z,16.25
2023-08-26T00:46:23.303Z,20.17
2023-08-26T00:51:29.530Z,15.20
2023-08-26T00:56:35.273Z,16.07
2023-08-26T01:01:42.731Z,15.70
2023-08-26T01:06:49.051Z,18.20
2023-08-26T01:11:57.715Z,18.62
2023-08-26T01:17:06.838Z,19.50
2023-08-26T01:22:15.023Z,15.95
2023-08-26T01:27:20.637Z,16.80
2023-08-26T01:32:32.137Z,19.17
2023-08-26T01:37:41.351Z,18.27
2023-08-26T01:42:49.058Z,15.18
2023-08-26T01:47:55.472Z,16.77
2023-08-26T01:53:01.539Z,16.85
2023-08-26T01:58:07.173Z,24.70
2023-08-26T02:03:12.855Z,19.17
2023-08-26T02:08:18.600Z,22.00
2023-08-26T02:13:25.169Z,16.93
2023-08-26T02:18:31.781Z,13.43
2023-08-26T02:23:38.003Z,14.05
2023-08-26T02:28:43.686Z,13.63
2023-08-26T02:33:49.342Z,14.43
2023-08-26T02:38:55.704Z,20.90
2023-08-26T02:44:02.425Z,17.63
2023-08-26T02:49:08.130Z,14.60
2023-08-26T02:54:14.169Z,14.93
2023-08-26T02:59:19.738Z,14.30
2023-08-26T03:04:25.297Z,14.73
2023-08-26T03:09:31.465Z,14.53
2023-08-26T03:14:37.126Z,19.60
2023-08-26T03:19:42.814Z,12.25
2023-08-26T03:24:48.867Z,14.07
2023-08-26T03:29:54.758Z,14.07
2023-08-26T03:35:00.352Z,14.35
2023-08-26T03:40:08.473Z,13.67
2023-08-26T03:45:14.175Z,14.23
2023-08-26T03:50:21.998Z,14.20
2023-08-26T03:55:28.300Z,16.27
2023-08-26T04:00:33.932Z,17.93
2023-08-26T04:05:39.695Z,14.57
2023-08-26T04:10:47.714Z,13.18
2023-08-26T04:16:01.946Z,13.23
2023-08-26T04:21:07.557Z,10.65
2023-08-26T04:26:13.227Z,15.67
2023-08-26T04:31:19.056Z,12.70
2023-08-26T04:36:26.454Z,11.17
2023-08-26T04:41:33.261Z,9.53
2023-08-26T04:46:42.682Z,17.27
2023-08-26T04:51:58.129Z,10.23
2023-08-26T04:57:05.673Z,10.70
2023-08-26T05:02:11.393Z,10.70
2023-08-26T05:07:17.033Z,7.43
2023-08-26T05:12:26.162Z,5.27
2023-08-26T05:17:32.639Z,6.17
2023-08-26T05:22:38.368Z,7.80
2023-08-26T05:27:44.613Z,4.58
2023-08-26T05:32:52.783Z,5.75
2023-08-26T05:38:00.095Z,4.20
2023-08-26T05:43:07.258Z,8.37
2023-08-26T05:48:12.914Z,3.40
2023-08-26T05:53:21.776Z,4.17
2023-08-26T05:58:27.315Z,3.50
2023-08-26T06:03:33.198Z,5.10
2023-08-26T06:08:38.947Z,5.55
2023-08-26T06:13:45.126Z,3.30
2023-08-26T06:18:53.988Z,3.60
2023-08-26T06:23:59.244Z,4.15
2023-08-26T06:29:06.261Z,3.58
2023-08-26T06:34:15.096Z,3.50
2023-08-26T06:39:26.030Z,6.55
2023-08-26T06:44:37.956Z,2.50
2023-08-26T06:49:49.578Z,3.87
2023-08-26T06:54:58.793Z,5.53
2023-08-26T07:00:10.067Z,5.92
2023-08-26T07:05:19.791Z,6.37
2023-08-26T07:10:31.758Z,3.30
2023-08-26T07:15:44.214Z,2.45
2023-08-26T07:20:51.732Z,4.17
2023-08-26T07:25:59.529Z,8.13
2023-08-26T07:31:12.123Z,4.08
2023-08-26T07:36:17.516Z,3.35
2023-08-26T07:41:29.135Z,2.22
2023-08-26T07:51:43.965Z,2.45
2023-08-26T07:56:49.819Z,1.80
2023-08-26T08:02:18.854Z,2.17
2023-08-26T08:07:28.995Z,1.40
2023-08-26T08:12:37.137Z,2.35
2023-08-26T08:17:44.326Z,2.08
2023-08-26T08:23:02.835Z,1.60
2023-08-26T08:28:10.620Z,3.75
2023-08-26T08:33:20.417Z,4.45
2023-08-26T08:38:30.496Z,7.35
2023-08-26T08:43:41.308Z,3.62
2023-08-26T08:48:50.367Z,2.62
2023-08-26T08:53:57.069Z,1.90
2023-08-26T08:59:03.668Z,1.30
2023-08-26T09:04:13.200Z,5.30
2023-08-26T09:09:32.240Z,2.08
2023-08-26T09:14:30.496Z,4.33
2023-08-26T09:19:40.709Z,2.98
2023-08-26T09:24:46.898Z,12.55
2023-08-26T09:29:54.625Z,5.78
2023-08-26T09:36:31.106Z,5.83
2023-08-26T09:40:29.812Z,2.05
2023-08-26T09:45:40.588Z,5.05
2023-08-26T09:50:47.235Z,6.20
2023-08-26T09:55:53.367Z,4.83
2023-08-26T10:01:04.500Z,11.50
2023-08-26T10:06:14.703Z,4.17
2023-08-26T10:11:23.759Z,3.50
2023-08-26T10:16:35.374Z,2.58
2023-08-26T10:21:41.116Z,9.85
2023-08-26T10:26:51.216Z,6.83
2023-08-26T10:31:56.772Z,5.05
2023-08-26T10:37:05.416Z,3.90
2023-08-26T10:42:23.057Z,3.42
2023-08-26T10:47:39.868Z,2.42
2023-08-26T10:52:50.159Z,4.72
2023-08-26T10:58:18.100Z,3.00
2023-08-26T11:03:29.883Z,5.55
2023-08-26T11:08:38.581Z,6.53
2023-08-26T11:13:46.543Z,8.88
2023-08-26T11:18:55.716Z,5.30
2023-08-26T11:24:23.192Z,5.45
2023-08-26T11:29:31.451Z,5.87
2023-08-26T11:34:37.101Z,4.55
2023-08-26T11:39:50.189Z,5.53
2023-08-26T11:45:01.870Z,4.00
2023-08-26T11:50:11.627Z,4.25
2023-08-26T11:55:28.072Z,9.70
2023-08-26T12:00:37.212Z,3.95
2023-08-26T12:05:51.115Z,5.53
2023-08-26T12:11:00.651Z,8.40
2023-08-26T12:16:11.707Z,6.10
2023-08-26T12:21:23.316Z,5.72
2023-08-26T12:26:32.150Z,6.15
2023-08-26T12:31:38.704Z,6.92
2023-08-26T12:36:52.764Z,3.42
2023-08-26T12:42:13.386Z,5.25
2023-08-26T12:47:27.297Z,2.42
2023-08-26T12:52:32.784Z,5.72
2023-08-26T12:57:38.544Z,4.28
2023-08-26T13:02:48.925Z,3.22
2023-08-26T13:07:55.477Z,3.02
2023-08-26T13:13:01.421Z,3.70
2023-08-26T13:18:08.598Z,4.28
2023-08-26T13:23:37.094Z,6.75
2023-08-26T13:28:45.663Z,2.98
2023-08-26T13:33:53.136Z,5.92
2023-08-26T13:39:02.173Z,2.58
2023-08-26T13:44:10.455Z,4.00
2023-08-26T13:49:20.652Z,4.33
2023-08-26T13:54:27.902Z,3.60
2023-08-26T13:59:35.246Z,3.25
2023-08-26T14:04:41.332Z,5.20
2023-08-26T14:09:49.271Z,2.90
2023-08-26T14:15:01.787Z,4.70
2023-08-26T14:20:06.004Z,5.12
2023-08-26T14:25:14.572Z,2.92
2023-08-26T14:30:22.403Z,1.98
2023-08-26T14:35:29.932Z,2.80
2023-08-26T14:40:39.134Z,4.22
2023-08-26T14:45:49.231Z,4.85
2023-08-26T14:50:58.131Z,3.12
2023-08-26T14:56:07.913Z,3.30
2023-08-26T15:01:15.050Z,5.92
2023-08-26T15:06:22.553Z,1.85
2023-08-26T15:11:28.117Z,2.52
2023-08-26T15:16:34.733Z,3.05
2023-08-26T15:21:41.851Z,3.15
2023-08-26T15:26:48.686Z,7.92
2023-08-26T15:31:55.291Z,4.42
2023-08-26T15:37:01.377Z,3.15
2023-08-26T15:42:21.433Z,2.00
2023-08-26T15:47:48.614Z,4.10
2023-08-26T15:52:54.191Z,1.90
2023-08-26T15:58:20.919Z,6.62
2023-08-26T16:03:31.737Z,2.87
2023-08-26T16:08:39.573Z,2.80
2023-08-26T16:14:20.025Z,2.10
2023-08-26T16:19:34.229Z,5.65
2023-08-26T16:24:42.761Z,3.70
2023-08-26T16:29:59.696Z,4.72
2023-08-26T16:35:11.871Z,3.52
2023-08-26T16:40:41.300Z,3.85
2023-08-26T16:45:58.518Z,3.90
2023-08-26T16:51:09.712Z,5.30
2023-08-26T16:56:17.947Z,5.70
2023-08-26T17:01:25.820Z,4.72
2023-08-26T17:06:37.844Z,3.50
2023-08-26T17:11:44.691Z,4.62
2023-08-26T17:17:10.333Z,3.12
2023-08-26T17:22:20.737Z,3.25
2023-08-26T17:27:29.241Z,4.50
2023-08-26T17:32:36.697Z,7.15
2023-08-26T17:37:46.369Z,4.60
2023-08-26T17:42:57.524Z,3.52
2023-08-26T17:48:08.452Z,5.62
2023-08-26T17:53:17.954Z,3.98
2023-08-26T17:58:26.061Z,3.85
2023-08-26T18:09:30.738Z,2.77
2023-08-26T18:14:45.619Z,8.05
2023-08-26T18:19:59.725Z,3.77
2023-08-26T18:25:12.474Z,5.67
2023-08-26T18:30:29.890Z,7.58
2023-08-26T18:35:45.975Z,5.03
2023-08-26T18:41:02.030Z,6.00
2023-08-26T18:46:09.880Z,4.25
2023-08-26T18:51:26.718Z,4.47
2023-08-26T18:56:38.772Z,4.40
2023-08-26T19:01:47.776Z,5.45
2023-08-26T19:06:55.936Z,4.53
2023-08-26T19:12:05.055Z,6.65
2023-08-26T19:17:11.924Z,7.22
2023-08-26T19:22:19.380Z,5.20
2023-08-26T19:27:29.439Z,7.60
2023-08-26T19:32:38.765Z,4.80
2023-08-26T19:37:48.422Z,6.00
2023-08-26T19:43:11.962Z,10.80
2023-08-26T19:48:27.092Z,6.00
2023-08-26T19:53:34.229Z,5.62
2023-08-26T19:58:42.468Z,6.05
2023-08-26T20:03:50.357Z,6.37
2023-08-26T20:08:58.161Z,5.12
2023-08-26T20:14:07.001Z,6.10
2023-08-26T20:19:15.943Z,5.95
2023-08-26T20:24:24.494Z,9.00
2023-08-26T20:29:29.908Z,8.20
2023-08-26T20:34:36.054Z,7.70
2023-08-26T20:39:41.524Z,7.23
2023-08-26T20:44:47.998Z,5.20
2023-08-26T20:49:57.371Z,6.35
2023-08-26T20:55:03.678Z,8.35
2023-08-26T21:00:12.875Z,8.60
2023-08-26T21:05:19.558Z,13.50
2023-08-26T21:10:35.048Z,5.10
2023-08-26T21:15:42.036Z,9.13
2023-08-26T21:20:49.323Z,12.70
2023-08-26T21:25:59.540Z,61.60
2023-08-26T21:31:12.083Z,23.57
2023-08-26T21:36:24.688Z,6.47
2023-08-26T21:41:32.183Z,8.75
2023-08-26T21:46:39.820Z,7.15
2023-08-26T21:51:45.231Z,6.73
2023-08-26T21:56:50.584Z,8.68
2023-08-26T22:01:57.027Z,7.00
2023-08-26T22:07:02.521Z,10.00
2023-08-26T22:12:10.443Z,8.20
2023-08-26T22:17:23.857Z,9.88
2023-08-26T22:22:45.554Z,5.58
2023-08-26T22:27:50.597Z,8.70
2023-08-26T22:33:02.790Z,8.73
2023-08-26T22:38:11.604Z,7.30
2023-08-26T22:43:17.571Z,7.30
2023-08-26T22:48:24.496Z,13.13
2023-08-26T22:53:33.996Z,6.10
2023-08-26T22:58:41.782Z,10.60
2023-08-26T23:03:48.142Z,6.35
2023-08-26T23:08:56.424Z,6.80
2023-08-26T23:14:13.599Z,8.33
2023-08-26T23:19:11.927Z,8.20
2023-08-26T23:24:21.025Z,6.10
2023-08-26T23:29:26.432Z,9.88
2023-08-26T23:34:31.815Z,8.33
2023-08-26T23:39:41.801Z,6.80
2023-08-26T23:44:52.491Z,7.03
2023-08-26T23:50:01.294Z,12.03
2023-08-26T23:55:12.207Z,7.20
